Time;durP1;ratioP1;P1;durP2;ratioP2;P2;SDS_P1;SDS_P2;PMS_P1;PMS_P2;Temp;Humidity;BMP_temperature;BMP_pressure;BME280_temperature;BME280_humidity;BME280_pressure;Samples;Min_cycle;Max_cycle;Signal;HPM_P1;HPM_P2
2023/05/07 00:05:22;;;;;;;10.00;6.13;;;6.00;99.90;;;;;;4542944;30;20871;-88
2023/05/07 00:35:58;;;;;;;6.53;4.80;;;5.90;99.90;;;;;;4662901;30;20228;-85
2023/05/07 00:56:15;;;;;;;8.30;5.60;;;5.90;99.90;;;;;;4627835;30;20231;-87
2023/05/07 01:36:31;;;;;;;6.67;4.97;;;5.70;99.90;;;;;;4701596;29;20725;-86
2023/05/07 01:56:27;;;;;;;5.73;5.13;;;5.60;99.90;;;;;;4626318;30;20505;-87
2023/05/07 02:17:14;;;;;;;5.77;4.87;;;5.50;99.90;;;;;;4568721;30;20217;-85
2023/05/07 02:37:29;;;;;;;6.23;4.90;;;5.70;99.90;;;;;;4588081;30;20223;-88
2023/05/07 03:07:59;;;;;;;5.63;4.70;;;5.40;99.90;;;;;;4628613;30;20740;-82
2023/05/07 03:48:36;;;;;;;5.23;4.40;;;5.70;99.90;;;;;;4664406;30;20227;-89
2023/05/07 04:18:36;;;;;;;5.73;4.50;;;5.90;99.90;;;;;;4769086;29;20591;-85
2023/05/07 04:59:31;;;;;;;5.50;4.13;;;5.90;99.90;;;;;;4682433;30;20689;-87
2023/05/07 05:19:39;;;;;;;6.43;4.37;;;6.10;99.90;;;;;;4590442;30;20591;-85
2023/05/07 05:44:25;;;;;;;3.77;3.40;;;6.80;99.90;;;;;;4563058;30;20205;-84
2023/05/07 06:10:23;;;;;;;3.37;2.70;;;7.10;99.90;;;;;;4584060;30;20330;-85
2023/05/07 07:26:31;;;;;;;4.80;2.90;;;8.10;99.90;;;;;;4711479;30;20308;-86
2023/05/07 07:30:50;;;;;;;3.47;2.53;;;8.40;99.90;;;;;;4709113;30;20575;-83
2023/05/07 07:56:35;;;;;;;6.63;2.47;;;8.50;99.90;;;;;;4779043;29;20217;-84
2023/05/07 08:32:17;;;;;;;1.73;1.63;;;9.60;96.20;;;;;;4816507;29;20283;-88
2023/05/07 08:57:36;;;;;;;2.73;2.53;;;9.50;91.70;;;;;;4766567;29;20211;-84
2023/05/07 09:33:13;;;;;;;1.90;1.80;;;9.50;88.60;;;;;;4872856;28;20851;-86
2023/05/07 09:37:33;;;;;;;3.20;1.60;;;9.70;85.10;;;;;;4838656;29;20201;-90
2023/05/07 09:58:05;;;;;;;2.50;2.30;;;9.80;88.10;;;;;;4808372;29;20807;-84
2023/05/07 11:04:14;;;;;;;2.37;1.77;;;9.70;84.00;;;;;;4572990;30;20434;-83
2023/05/07 11:39:16;;;;;;;2.10;1.90;;;10.40;83.60;;;;;;4764740;29;20545;-87
2023/05/07 12:05:02;;;;;;;1.80;1.70;;;10.60;81.50;;;;;;4617695;30;20428;-84
2023/05/07 12:55:12;;;;;;;1.87;1.47;;;10.80;79.00;;;;;;4792950;29;20431;-90
2023/05/07 13:16:02;;;;;;;1.70;1.60;;;11.30;79.90;;;;;;4795248;29;20630;-86
2023/05/07 13:51:31;;;;;;;2.27;1.90;;;12.10;76.90;;;;;;4712270;30;20709;-85
2023/05/07 14:21:53;;;;;;;2.00;1.80;;;12.70;72.90;;;;;;4769789;29;20244;-87
2023/05/07 14:47:06;;;;;;;2.07;1.80;;;13.50;63.70;;;;;;4684584;30;20641;-88
2023/05/07 15:07:04;;;;;;;2.40;1.50;;;13.70;59.80;;;;;;4657284;30;20544;-86
2023/05/07 15:28:02;;;;;;;3.67;1.83;;;14.70;54.80;;;;;;4794089;29;20329;-86
2023/05/07 15:48:09;;;;;;;1.80;1.53;;;14.60;49.80;;;;;;4895384;28;20392;-86
2023/05/07 16:13:23;;;;;;;4.50;2.33;;;12.60;62.50;;;;;;4746054;29;21139;-87
2023/05/07 16:43:39;;;;;;;4.17;2.20;;;11.20;73.20;;;;;;4810941;29;20199;-85
2023/05/07 17:09:04;;;;;;;4.70;3.00;;;10.90;77.20;;;;;;4791962;29;20220;-86
2023/05/07 17:34:27;;;;;;;3.43;2.80;;;10.00;82.70;;;;;;4662091;30;20237;-85
2023/05/07 17:59:42;;;;;;;3.90;3.30;;;9.50;83.00;;;;;;4653571;30;20503;-88
2023/05/07 18:50:35;;;;;;;6.10;4.33;;;7.90;95.60;;;;;;4720993;30;20300;-87
2023/05/07 19:56:11;;;;;;;7.60;6.27;;;5.10;99.90;;;;;;4620363;30;21010;-84
2023/05/07 20:16:41;;;;;;;7.73;6.87;;;4.90;99.90;;;;;;4692622;29;20232;-83
2023/05/07 20:46:35;;;;;;;13.03;10.33;;;4.40;99.90;;;;;;4700005;29;20277;-83
2023/05/07 21:12:28;;;;;;;17.00;12.27;;;4.00;99.90;;;;;;4655118;30;20201;-86
